sensor_id;sensor_type;location;lat;lon;timestamp;pressure;altitude;pressure_sealevel;temperature;humidity
30708;BME280;17458;48.958;8.284;2023-07-30T00:02:42;99874.41;;;21.78;81.56
30708;BME280;17458;48.958;8.284;2023-07-30T00:05:26;99870.78;;;22.01;80.23
30708;BME280;17458;48.958;8.284;2023-07-30T00:08:11;99872.59;;;21.89;80.81
30708;BME280;17458;48.958;8.284;2023-07-30T00:10:58;99874.38;;;22.00;80.53
30708;BME280;17458;48.958;8.284;2023-07-30T00:13:42;99869.00;;;21.84;81.21
30708;BME280;17458;48.958;8.284;2023-07-30T00:16:26;99868.09;;;21.78;81.85
30708;BME280;17458;48.958;8.284;2023-07-30T00:19:10;99871.66;;;21.93;80.56
30708;BME280;17458;48.958;8.284;2023-07-30T00:21:54;99870.88;;;21.58;83.11
30708;BME280;17458;48.958;8.284;2023-07-30T00:24:38;99877.19;;;21.58;83.19
30708;BME280;17458;48.958;8.284;2023-07-30T00:27:22;99878.06;;;21.71;82.59
30708;BME280;17458;48.958;8.284;2023-07-30T00:30:06;99889.72;;;21.87;81.11
30708;BME280;17458;48.958;8.284;2023-07-30T00:32:51;99883.50;;;21.57;82.98
30708;BME280;17458;48.958;8.284;2023-07-30T00:35:34;99881.66;;;21.63;83.14
30708;BME280;17458;48.958;8.284;2023-07-30T00:38:19;99880.75;;;21.71;82.43
30708;BME280;17458;48.958;8.284;2023-07-30T00:41:03;99884.34;;;21.67;82.37
30708;BME280;17458;48.958;8.284;2023-07-30T00:43:47;99887.13;;;21.44;84.09
30708;BME280;17458;48.958;8.284;2023-07-30T00:46:33;99889.78;;;21.58;83.72
30708;BME280;17458;48.958;8.284;2023-07-30T00:49:17;99888.91;;;21.61;83.51
30708;BME280;17458;48.958;8.284;2023-07-30T00:52:03;99898.72;;;21.84;82.84
30708;BME280;17458;48.958;8.284;2023-07-30T00:54:48;99899.69;;;21.73;84.03
30708;BME280;17458;48.958;8.284;2023-07-30T00:57:33;99903.25;;;21.84;83.10
30708;BME280;17458;48.958;8.284;2023-07-30T01:00:19;99902.34;;;21.76;83.85
30708;BME280;17458;48.958;8.284;2023-07-30T01:03:03;99898.78;;;21.72;84.18
30708;BME280;17458;48.958;8.284;2023-07-30T01:05:47;99902.41;;;21.57;85.69
30708;BME280;17458;48.958;8.284;2023-07-30T01:08:31;99899.66;;;21.65;85.56
30708;BME280;17458;48.958;8.284;2023-07-30T01:11:16;99901.53;;;21.45;87.21
30708;BME280;17458;48.958;8.284;2023-07-30T01:14:01;99911.44;;;21.44;87.36
30708;BME280;17458;48.958;8.284;2023-07-30T01:16:45;99912.34;;;21.28;89.36
30708;BME280;17458;48.958;8.284;2023-07-30T01:19:29;99906.00;;;21.37;88.63
30708;BME280;17458;48.958;8.284;2023-07-30T01:22:14;99906.03;;;21.29;89.75
30708;BME280;17458;48.958;8.284;2023-07-30T01:24:59;99902.41;;;21.50;87.62
30708;BME280;17458;48.958;8.284;2023-07-30T01:27:48;99911.38;;;21.69;87.44
30708;BME280;17458;48.958;8.284;2023-07-30T01:30:38;99916.81;;;21.60;87.60
30708;BME280;17458;48.958;8.284;2023-07-30T01:33:24;99919.50;;;21.69;86.38
30708;BME280;17458;48.958;8.284;2023-07-30T01:36:10;99918.56;;;22.00;84.42
30708;BME280;17458;48.958;8.284;2023-07-30T01:38:58;99917.63;;;22.04;82.59
30708;BME280;17458;48.958;8.284;2023-07-30T01:41:43;99919.47;;;21.81;84.15
30708;BME280;17458;48.958;8.284;2023-07-30T01:44:27;99925.78;;;21.81;84.06
30708;BME280;17458;48.958;8.284;2023-07-30T01:47:11;99924.84;;;21.93;82.61
30708;BME280;17458;48.958;8.284;2023-07-30T01:49:55;99920.38;;;21.81;83.30
30708;BME280;17458;48.958;8.284;2023-07-30T01:52:39;99930.28;;;21.88;83.05
30708;BME280;17458;48.958;8.284;2023-07-30T01:55:23;99934.81;;;21.70;84.37
30708;BME280;17458;48.958;8.284;2023-07-30T01:58:07;99941.09;;;21.87;83.28
30708;BME280;17458;48.958;8.284;2023-07-30T02:00:51;99925.72;;;21.90;82.91
30708;BME280;17458;48.958;8.284;2023-07-30T02:03:35;99928.47;;;21.84;83.20
30708;BME280;17458;48.958;8.284;2023-07-30T02:06:19;99922.16;;;21.76;84.11
30708;BME280;17458;48.958;8.284;2023-07-30T02:09:03;99928.47;;;21.86;83.61
30708;BME280;17458;48.958;8.284;2023-07-30T02:11:47;99923.09;;;21.72;85.20
30708;BME280;17458;48.958;8.284;2023-07-30T02:14:31;99919.47;;;21.87;84.38
30708;BME280;17458;48.958;8.284;2023-07-30T02:17:18;99919.47;;;21.79;84.94
30708;BME280;17458;48.958;8.284;2023-07-30T02:20:03;99924.84;;;21.96;83.92
30708;BME280;17458;48.958;8.284;2023-07-30T02:22:47;99923.00;;;22.12;83.04
30708;BME280;17458;48.958;8.284;2023-07-30T02:25:31;99914.06;;;21.81;84.79
30708;BME280;17458;48.958;8.284;2023-07-30T02:28:15;99913.09;;;22.06;82.86
30708;BME280;17458;48.958;8.284;2023-07-30T02:30:59;99911.31;;;21.91;84.04
30708;BME280;17458;48.958;8.284;2023-07-30T02:33:43;99918.63;;;21.61;85.67
30708;BME280;17458;48.958;8.284;2023-07-30T02:36:27;99917.66;;;21.83;84.45
30708;BME280;17458;48.958;8.284;2023-07-30T02:39:11;99918.59;;;21.64;85.82
30708;BME280;17458;48.958;8.284;2023-07-30T02:41:55;99920.31;;;21.95;83.71
30708;BME280;17458;48.958;8.284;2023-07-30T02:44:39;99917.63;;;21.95;83.21
30708;BME280;17458;48.958;8.284;2023-07-30T02:47:23;99918.56;;;21.85;84.44
30708;BME280;17458;48.958;8.284;2023-07-30T02:50:08;99924.81;;;22.07;83.75
30708;BME280;17458;48.958;8.284;2023-07-30T02:52:52;99925.69;;;22.19;82.31
30708;BME280;17458;48.958;8.284;2023-07-30T02:55:36;99932.94;;;21.93;84.53
30708;BME280;17458;48.958;8.284;2023-07-30T02:58:20;99924.81;;;22.13;83.41
30708;BME280;17458;48.958;8.284;2023-07-30T03:01:07;99929.28;;;22.27;82.15
30708;BME280;17458;48.958;8.284;2023-07-30T03:03:52;99932.84;;;22.33;82.18
30708;BME280;17458;48.958;8.284;2023-07-30T03:06:36;99929.22;;;22.34;82.06
30708;BME280;17458;48.958;8.284;2023-07-30T03:09:20;99931.03;;;22.35;81.97
30708;BME280;17458;48.958;8.284;2023-07-30T03:12:05;99947.34;;;22.04;83.72
30708;BME280;17458;48.958;8.284;2023-07-30T03:14:49;99945.56;;;21.96;84.98
30708;BME280;17458;48.958;8.284;2023-07-30T03:17:33;99938.38;;;21.82;86.41
30708;BME280;17458;48.958;8.284;2023-07-30T03:20:17;99951.91;;;21.67;87.35
30708;BME280;17458;48.958;8.284;2023-07-30T03:23:00;99946.53;;;21.61;87.07
30708;BME280;17458;48.958;8.284;2023-07-30T03:25:44;99945.63;;;21.56;86.85
30708;BME280;17458;48.958;8.284;2023-07-30T03:28:28;99949.25;;;21.58;86.58
30708;BME280;17458;48.958;8.284;2023-07-30T03:31:13;99947.41;;;21.11;89.46
30708;BME280;17458;48.958;8.284;2023-07-30T03:33:57;99946.50;;;21.03;90.93
30708;BME280;17458;48.958;8.284;2023-07-30T03:36:41;99945.63;;;21.41;88.80
30708;BME280;17458;48.958;8.284;2023-07-30T03:39:25;99952.81;;;21.48;88.81
30708;BME280;17458;48.958;8.284;2023-07-30T03:42:09;99957.34;;;21.55;88.20
30708;BME280;17458;48.958;8.284;2023-07-30T03:44:53;99957.34;;;21.35;89.52
30708;BME280;17458;48.958;8.284;2023-07-30T03:47:37;99969.03;;;21.36;88.77
30708;BME280;17458;48.958;8.284;2023-07-30T03:50:21;99970.88;;;21.31;89.77
30708;BME280;17458;48.958;8.284;2023-07-30T03:53:05;99972.56;;;20.98;92.04
30708;BME280;17458;48.958;8.284;2023-07-30T03:55:49;99972.59;;;21.00;92.11
30708;BME280;17458;48.958;8.284;2023-07-30T03:58:33;99981.59;;;21.05;91.39
30708;BME280;17458;48.958;8.284;2023-07-30T04:01:17;99983.34;;;20.81;89.79
30708;BME280;17458;48.958;8.284;2023-07-30T04:04:01;99991.31;;;20.52;90.67
30708;BME280;17458;48.958;8.284;2023-07-30T04:06:46;99985.13;;;20.75;88.20
30708;BME280;17458;48.958;8.284;2023-07-30T04:09:31;99994.13;;;20.75;88.55
30708;BME280;17458;48.958;8.284;2023-07-30T04:12:17;99992.31;;;20.73;87.88
30708;BME280;17458;48.958;8.284;2023-07-30T04:15:03;100000.38;;;20.62;88.34
30708;BME280;17458;48.958;8.284;2023-07-30T04:17:47;99989.56;;;20.65;88.77
30708;BME280;17458;48.958;8.284;2023-07-30T04:20:33;99978.78;;;20.67;88.07
30708;BME280;17458;48.958;8.284;2023-07-30T04:23:17;99990.41;;;20.43;90.04
30708;BME280;17458;48.958;8.284;2023-07-30T04:26:01;99986.84;;;20.48;89.72
30708;BME280;17458;48.958;8.284;2023-07-30T04:28:45;99989.63;;;20.76;87.49
30708;BME280;17458;48.958;8.284;2023-07-30T04:31:29;100004.94;;;20.75;87.72
30708;BME280;17458;48.958;8.284;2023-07-30T04:34:13;100006.69;;;20.69;88.21
30708;BME280;17458;48.958;8.284;2023-07-30T04:36:59;99997.69;;;20.70;88.31
30708;BME280;17458;48.958;8.284;2023-07-30T04:39:44;100006.66;;;20.61;88.04
30708;BME280;17458;48.958;8.284;2023-07-30T04:42:28;99996.81;;;20.72;87.42
30708;BME280;17458;48.958;8.284;2023-07-30T04:45:12;100003.00;;;20.44;89.41
30708;BME280;17458;48.958;8.284;2023-07-30T04:48:00;100004.00;;;20.70;88.39
30708;BME280;17458;48.958;8.284;2023-07-30T04:50:44;100010.25;;;20.59;89.32
30708;BME280;17458;48.958;8.284;2023-07-30T04:53:28;100004.03;;;20.85;87.11
30708;BME280;17458;48.958;8.284;2023-07-30T04:56:12;100004.00;;;20.79;87.65
30708;BME280;17458;48.958;8.284;2023-07-30T04:58:56;100012.09;;;20.70;89.18
30708;BME280;17458;48.958;8.284;2023-07-30T05:01:40;100016.72;;;21.17;86.16
30708;BME280;17458;48.958;8.284;2023-07-30T05:04:24;100012.22;;;21.14;86.03
30708;BME280;17458;48.958;8.284;2023-07-30T05:07:08;100008.66;;;21.28;86.20
30708;BME280;17458;48.958;8.284;2023-07-30T05:09:52;100009.56;;;21.34;87.01
30708;BME280;17458;48.958;8.284;2023-07-30T05:12:36;100016.78;;;21.32;87.25
30708;BME280;17458;48.958;8.284;2023-07-30T05:15:21;100009.50;;;21.10;89.07
30708;BME280;17458;48.958;8.284;2023-07-30T05:18:05;100019.38;;;20.99;91.28
30708;BME280;17458;48.958;8.284;2023-07-30T05:20:49;99996.03;;;21.16;90.42
30708;BME280;17458;48.958;8.284;2023-07-30T05:23:33;99994.16;;;20.94;91.13
30708;BME280;17458;48.958;8.284;2023-07-30T05:26:17;99996.06;;;21.36;89.10
30708;BME280;17458;48.958;8.284;2023-07-30T05:29:01;99999.69;;;21.47;88.26
30708;BME280;17458;48.958;8.284;2023-07-30T05:31:45;100020.41;;;21.60;88.44
30708;BME280;17458;48.958;8.284;2023-07-30T05:34:29;100032.09;;;22.12;84.92
30708;BME280;17458;48.958;8.284;2023-07-30T05:37:13;100023.09;;;22.13;84.45
30708;BME280;17458;48.958;8.284;2023-07-30T05:39:56;100019.41;;;22.37;83.71
30708;BME280;17458;48.958;8.284;2023-07-30T05:42:41;100014.84;;;22.47;83.60
30708;BME280;17458;48.958;8.284;2023-07-30T05:45:25;100008.44;;;22.78;81.81
30708;BME280;17458;48.958;8.284;2023-07-30T05:48:09;100011.00;;;23.07;80.48
30708;BME280;17458;48.958;8.284;2023-07-30T05:50:54;100010.09;;;23.04;81.34
30708;BME280;17458;48.958;8.284;2023-07-30T05:53:38;100010.16;;;22.91;80.67
30708;BME280;17458;48.958;8.284;2023-07-30T05:56:21;100010.19;;;22.90;80.58
30708;BME280;17458;48.958;8.284;2023-07-30T05:59:05;100012.94;;;22.85;81.49
30708;BME280;17458;48.958;8.284;2023-07-30T06:01:50;100020.09;;;22.89;81.90
30708;BME280;17458;48.958;8.284;2023-07-30T06:04:34;100023.91;;;22.43;84.41
30708;BME280;17458;48.958;8.284;2023-07-30T06:07:17;100030.25;;;22.31;84.68
30708;BME280;17458;48.958;8.284;2023-07-30T06:10:02;100021.28;;;22.09;87.02
30708;BME280;17458;48.958;8.284;2023-07-30T06:12:45;100031.19;;;21.86;88.24
30708;BME280;17458;48.958;8.284;2023-07-30T06:15:30;100046.47;;;21.28;92.14
30708;BME280;17458;48.958;8.284;2023-07-30T06:18:14;100031.16;;;21.36;92.37
30708;BME280;17458;48.958;8.284;2023-07-30T06:20:58;100042.88;;;21.32;92.50
30708;BME280;17458;48.958;8.284;2023-07-30T06:23:42;100054.50;;;21.03;93.60
30708;BME280;17458;48.958;8.284;2023-07-30T06:26:26;100047.41;;;21.51;90.19
30708;BME280;17458;48.958;8.284;2023-07-30T06:29:10;100049.19;;;21.50;89.79
30708;BME280;17458;48.958;8.284;2023-07-30T06:31:54;100043.81;;;21.46;89.97
30708;BME280;17458;48.958;8.284;2023-07-30T06:34:38;100041.09;;;21.53;90.26
30708;BME280;17458;48.958;8.284;2023-07-30T06:37:22;100056.41;;;21.62;90.88
30708;BME280;17458;48.958;8.284;2023-07-30T06:40:06;100056.44;;;22.05;88.75
30708;BME280;17458;48.958;8.284;2023-07-30T06:42:51;100061.81;;;21.96;89.55
30708;BME280;17458;48.958;8.284;2023-07-30T06:45:35;100069.06;;;22.16;88.11
30708;BME280;17458;48.958;8.284;2023-07-30T06:48:19;100068.13;;;21.98;88.96
30708;BME280;17458;48.958;8.284;2023-07-30T06:51:07;100070.84;;;22.08;88.15
30708;BME280;17458;48.958;8.284;2023-07-30T06:53:52;100080.75;;;21.96;89.10
30708;BME280;17458;48.958;8.284;2023-07-30T06:56:36;100085.25;;;21.92;90.00
30708;BME280;17458;48.958;8.284;2023-07-30T06:59:20;100091.59;;;21.88;89.31
30708;BME280;17458;48.958;8.284;2023-07-30T07:02:04;100095.16;;;21.82;88.85
30708;BME280;17458;48.958;8.284;2023-07-30T07:04:49;100087.97;;;21.95;86.63
30708;BME280;17458;48.958;8.284;2023-07-30T07:07:33;100085.28;;;22.06;86.74
30708;BME280;17458;48.958;8.284;2023-07-30T07:10:17;100104.19;;;21.80;88.64
30708;BME280;17458;48.958;8.284;2023-07-30T07:13:01;100101.50;;;22.12;87.55
30708;BME280;17458;48.958;8.284;2023-07-30T07:15:45;100112.34;;;22.00;86.99
30708;BME280;17458;48.958;8.284;2023-07-30T07:18:29;100120.41;;;22.44;86.02
30708;BME280;17458;48.958;8.284;2023-07-30T07:21:13;100114.09;;;22.34;86.05
30708;BME280;17458;48.958;8.284;2023-07-30T07:23:57;100115.03;;;22.25;86.60
30708;BME280;17458;48.958;8.284;2023-07-30T07:26:41;100106.88;;;22.39;86.67
30708;BME280;17458;48.958;8.284;2023-07-30T07:29:25;100111.31;;;22.69;84.61
30708;BME280;17458;48.958;8.284;2023-07-30T07:32:09;100112.22;;;22.73;84.20
30708;BME280;17458;48.958;8.284;2023-07-30T07:34:53;100111.31;;;22.81;86.59
30708;BME280;17458;48.958;8.284;2023-07-30T07:37:38;100116.69;;;22.93;84.15
30708;BME280;17458;48.958;8.284;2023-07-30T07:40:21;100116.56;;;23.24;81.96
30708;BME280;17458;48.958;8.284;2023-07-30T07:43:07;100125.66;;;23.03;82.20
30708;BME280;17458;48.958;8.284;2023-07-30T07:45:51;100117.59;;;22.95;81.21
30708;BME280;17458;48.958;8.284;2023-07-30T07:48:35;100115.72;;;23.08;80.53
30708;BME280;17458;48.958;8.284;2023-07-30T07:51:19;100115.78;;;22.97;81.38
30708;BME280;17458;48.958;8.284;2023-07-30T07:54:03;100123.69;;;23.43;79.04
30708;BME280;17458;48.958;8.284;2023-07-30T07:56:47;100123.66;;;23.54;79.87
30708;BME280;17458;48.958;8.284;2023-07-30T07:59:31;100125.41;;;24.69;78.50
30708;BME280;17458;48.958;8.284;2023-07-30T08:02:15;100121.72;;;24.72;74.22
30708;BME280;17458;48.958;8.284;2023-07-30T08:04:59;100125.25;;;24.82;72.81
30708;BME280;17458;48.958;8.284;2023-07-30T08:07:45;100120.50;;;25.00;72.57
30708;BME280;17458;48.958;8.284;2023-07-30T08:10:29;100125.13;;;24.94;70.97
30708;BME280;17458;48.958;8.284;2023-07-30T08:13:13;100140.03;;;24.53;71.62
30708;BME280;17458;48.958;8.284;2023-07-30T08:15:57;100144.34;;;24.74;70.52
30708;BME280;17458;48.958;8.284;2023-07-30T08:18:41;100134.00;;;24.19;71.29
30708;BME280;17458;48.958;8.284;2023-07-30T08:21:26;100139.63;;;23.93;70.44
30708;BME280;17458;48.958;8.284;2023-07-30T08:24:10;100143.03;;;24.17;71.96
30708;BME280;17458;48.958;8.284;2023-07-30T08:26:54;100133.19;;;24.08;70.88
30708;BME280;17458;48.958;8.284;2023-07-30T08:29:38;100140.31;;;24.24;68.43
30708;BME280;17458;48.958;8.284;2023-07-30T08:32:22;100142.31;;;23.96;71.28
30708;BME280;17458;48.958;8.284;2023-07-30T08:35:06;100145.97;;;23.91;70.88
30708;BME280;17458;48.958;8.284;2023-07-30T08:37:50;100149.59;;;23.93;66.62
30708;BME280;17458;48.958;8.284;2023-07-30T08:40:34;100155.50;;;24.45;65.37
30708;BME280;17458;48.958;8.284;2023-07-30T08:43:19;100146.38;;;24.54;65.04
30708;BME280;17458;48.958;8.284;2023-07-30T08:46:03;100147.75;;;23.99;65.85
30708;BME280;17458;48.958;8.284;2023-07-30T08:48:47;100133.28;;;23.96;66.09
30708;BME280;17458;48.958;8.284;2023-07-30T08:51:31;100139.31;;;24.36;64.53
30708;BME280;17458;48.958;8.284;2023-07-30T08:54:20;100150.13;;;25.23;64.22
30708;BME280;17458;48.958;8.284;2023-07-30T08:57:05;100155.56;;;25.25;63.81
30708;BME280;17458;48.958;8.284;2023-07-30T08:59:54;100162.31;;;24.86;61.14
30708;BME280;17458;48.958;8.284;2023-07-30T09:02:48;100163.03;;;25.06;62.94
30708;BME280;17458;48.958;8.284;2023-07-30T09:05:33;100155.81;;;25.03;62.23
30708;BME280;17458;48.958;8.284;2023-07-30T09:08:17;100175.88;;;24.86;60.12
30708;BME280;17458;48.958;8.284;2023-07-30T09:11:11;100159.28;;;25.16;58.05
30708;BME280;17458;48.958;8.284;2023-07-30T09:13:56;100164.06;;;24.94;59.45
30708;BME280;17458;48.958;8.284;2023-07-30T09:16:40;100166.78;;;24.91;60.15
30708;BME280;17458;48.958;8.284;2023-07-30T09:19:24;100166.34;;;24.47;59.49
30708;BME280;17458;48.958;8.284;2023-07-30T09:22:08;100175.94;;;24.83;59.94
30708;BME280;17458;48.958;8.284;2023-07-30T09:24:56;100170.16;;;25.15;59.11
30708;BME280;17458;48.958;8.284;2023-07-30T09:27:40;100175.38;;;25.33;58.80
30708;BME280;17458;48.958;8.284;2023-07-30T09:30:26;100185.72;;;25.74;56.29
30708;BME280;17458;48.958;8.284;2023-07-30T09:33:18;100195.66;;;25.04;56.71
30708;BME280;17458;48.958;8.284;2023-07-30T09:36:03;100187.34;;;25.15;57.84
30708;BME280;17458;48.958;8.284;2023-07-30T09:38:48;100191.72;;;25.28;56.46
30708;BME280;17458;48.958;8.284;2023-07-30T09:41:33;100187.59;;;24.95;57.08
30708;BME280;17458;48.958;8.284;2023-07-30T09:44:19;100178.44;;;25.04;58.52
30708;BME280;17458;48.958;8.284;2023-07-30T09:47:09;100195.63;;;25.06;59.01
30708;BME280;17458;48.958;8.284;2023-07-30T09:49:54;100192.63;;;25.30;57.39
30708;BME280;17458;48.958;8.284;2023-07-30T09:52:38;100197.72;;;24.75;57.80
30708;BME280;17458;48.958;8.284;2023-07-30T09:55:22;100211.44;;;24.61;58.61
30708;BME280;17458;48.958;8.284;2023-07-30T09:58:06;100204.53;;;24.27;58.84
30708;BME280;17458;48.958;8.284;2023-07-30T10:00:56;100216.19;;;24.36;59.82
30708;BME280;17458;48.958;8.284;2023-07-30T10:03:41;100215.50;;;24.04;60.32
30708;BME280;17458;48.958;8.284;2023-07-30T10:06:29;100213.69;;;24.03;58.94
30708;BME280;17458;48.958;8.284;2023-07-30T10:09:17;100226.19;;;24.28;56.62
30708;BME280;17458;48.958;8.284;2023-07-30T10:12:04;100236.97;;;24.42;56.57
30708;BME280;17458;48.958;8.284;2023-07-30T10:14:49;100236.13;;;24.34;55.65
30708;BME280;17458;48.958;8.284;2023-07-30T10:17:34;100230.56;;;24.52;56.13
30708;BME280;17458;48.958;8.284;2023-07-30T10:20:26;100236.75;;;24.66;54.86
30708;BME280;17458;48.958;8.284;2023-07-30T10:23:10;100249.34;;;24.75;55.80
30708;BME280;17458;48.958;8.284;2023-07-30T10:25:54;100248.69;;;24.44;56.39
30708;BME280;17458;48.958;8.284;2023-07-30T10:28:39;100251.34;;;24.55;56.17
30708;BME280;17458;48.958;8.284;2023-07-30T10:31:38;100250.06;;;24.98;56.62
30708;BME280;17458;48.958;8.284;2023-07-30T10:34:44;100243.09;;;24.67;54.81
30708;BME280;17458;48.958;8.284;2023-07-30T10:37:30;100241.22;;;24.72;55.42
30708;BME280;17458;48.958;8.284;2023-07-30T10:40:17;100244.78;;;24.80;56.06
30708;BME280;17458;48.958;8.284;2023-07-30T10:43:14;100247.63;;;24.68;55.81
30708;BME280;17458;48.958;8.284;2023-07-30T10:45:58;100243.25;;;24.44;55.83
30708;BME280;17458;48.958;8.284;2023-07-30T10:48:46;100253.09;;;24.60;53.90
30708;BME280;17458;48.958;8.284;2023-07-30T10:51:31;100253.75;;;24.87;51.16
30708;BME280;17458;48.958;8.284;2023-07-30T10:54:18;100253.97;;;24.62;50.50
30708;BME280;17458;48.958;8.284;2023-07-30T10:57:03;100260.56;;;24.32;50.37
30708;BME280;17458;48.958;8.284;2023-07-30T10:59:47;100254.22;;;24.35;51.72
30708;BME280;17458;48.958;8.284;2023-07-30T11:02:31;100258.09;;;23.90;50.69
30708;BME280;17458;48.958;8.284;2023-07-30T11:05:16;100266.00;;;24.29;51.29
30708;BME280;17458;48.958;8.284;2023-07-30T11:08:00;100263.16;;;24.45;49.92
30708;BME280;17458;48.958;8.284;2023-07-30T11:10:45;100263.25;;;24.38;50.55
30708;BME280;17458;48.958;8.284;2023-07-30T11:13:41;100258.81;;;24.18;49.88
30708;BME280;17458;48.958;8.284;2023-07-30T11:16:26;100258.97;;;23.99;51.55
30708;BME280;17458;48.958;8.284;2023-07-30T11:19:10;100259.63;;;24.38;51.35
30708;BME280;17458;48.958;8.284;2023-07-30T11:21:57;100248.41;;;24.79;50.98
30708;BME280;17458;48.958;8.284;2023-07-30T11:24:41;100263.69;;;24.91;49.54
30708;BME280;17458;48.958;8.284;2023-07-30T11:27:25;100271.78;;;25.80;48.90
30708;BME280;17458;48.958;8.284;2023-07-30T11:30:09;100262.72;;;24.99;50.03
30708;BME280;17458;48.958;8.284;2023-07-30T11:32:55;100264.44;;;25.10;49.36
30708;BME280;17458;48.958;8.284;2023-07-30T11:35:39;100258.22;;;25.76;50.65
30708;BME280;17458;48.958;8.284;2023-07-30T11:38:25;100258.53;;;26.20;48.61
30708;BME280;17458;48.958;8.284;2023-07-30T11:41:10;100264.34;;;26.54;48.56
30708;BME280;17458;48.958;8.284;2023-07-30T11:43:54;100267.63;;;26.17;46.90
30708;BME280;17458;48.958;8.284;2023-07-30T11:46:39;100264.41;;;26.51;46.95
30708;BME280;17458;48.958;8.284;2023-07-30T11:49:23;100274.47;;;26.47;47.04
30708;BME280;17458;48.958;8.284;2023-07-30T11:52:08;100265.66;;;26.28;47.38
30708;BME280;17458;48.958;8.284;2023-07-30T11:55:05;100260.41;;;26.71;47.40
30708;BME280;17458;48.958;8.284;2023-07-30T11:57:49;100270.53;;;26.65;45.01
30708;BME280;17458;48.958;8.284;2023-07-30T12:00:34;100282.00;;;26.28;46.15
30708;BME280;17458;48.958;8.284;2023-07-30T12:03:18;100279.34;;;26.22;44.83
30708;BME280;17458;48.958;8.284;2023-07-30T12:06:05;100281.63;;;25.90;46.18
30708;BME280;17458;48.958;8.284;2023-07-30T12:08:50;100284.31;;;25.91;45.51
30708;BME280;17458;48.958;8.284;2023-07-30T12:11:44;100282.16;;;26.14;46.46
30708;BME280;17458;48.958;8.284;2023-07-30T12:14:45;100297.19;;;26.44;45.83
30708;BME280;17458;48.958;8.284;2023-07-30T12:17:35;100288.34;;;26.26;43.48
30708;BME280;17458;48.958;8.284;2023-07-30T12:20:19;100284.81;;;26.21;44.37
30708;BME280;17458;48.958;8.284;2023-07-30T12:23:03;100298.72;;;25.99;46.31
30708;BME280;17458;48.958;8.284;2023-07-30T12:25:47;100306.69;;;26.13;46.08
30708;BME280;17458;48.958;8.284;2023-07-30T12:28:32;100291.91;;;25.66;46.14
30708;BME280;17458;48.958;8.284;2023-07-30T12:31:17;100298.97;;;25.83;47.93
30708;BME280;17458;48.958;8.284;2023-07-30T12:34:01;100300.06;;;25.66;46.67
30708;BME280;17458;48.958;8.284;2023-07-30T12:36:46;100303.88;;;25.49;46.12
30708;BME280;17458;48.958;8.284;2023-07-30T12:39:29;100299.88;;;24.93;45.22
30708;BME280;17458;48.958;8.284;2023-07-30T12:42:39;100303.59;;;25.74;44.79
30708;BME280;17458;48.958;8.284;2023-07-30T12:45:23;100294.63;;;26.34;44.96
30708;BME280;17458;48.958;8.284;2023-07-30T12:48:07;100293.72;;;26.35;45.06
30708;BME280;17458;48.958;8.284;2023-07-30T12:50:52;100297.84;;;26.60;46.70
30708;BME280;17458;48.958;8.284;2023-07-30T12:53:35;100298.94;;;27.05;44.29
30708;BME280;17458;48.958;8.284;2023-07-30T12:56:19;100292.03;;;26.81;44.79
30708;BME280;17458;48.958;8.284;2023-07-30T12:59:03;100298.25;;;26.90;43.58
30708;BME280;17458;48.958;8.284;2023-07-30T13:01:47;100292.25;;;26.68;43.53
30708;BME280;17458;48.958;8.284;2023-07-30T13:04:31;100298.72;;;25.98;43.74
30708;BME280;17458;48.958;8.284;2023-07-30T13:07:15;100291.69;;;26.49;42.41
30708;BME280;17458;48.958;8.284;2023-07-30T13:10:06;100306.03;;;25.96;43.30
30708;BME280;17458;48.958;8.284;2023-07-30T13:12:51;100306.63;;;26.18;43.16
30708;BME280;17458;48.958;8.284;2023-07-30T13:15:35;100315.50;;;26.33;42.73
30708;BME280;17458;48.958;8.284;2023-07-30T13:18:19;100305.00;;;26.06;43.58
30708;BME280;17458;48.958;8.284;2023-07-30T13:21:03;100316.25;;;26.44;44.78
30708;BME280;17458;48.958;8.284;2023-07-30T13:23:47;100313.66;;;26.37;44.21
30708;BME280;17458;48.958;8.284;2023-07-30T13:26:31;100302.06;;;26.79;41.21
30708;BME280;17458;48.958;8.284;2023-07-30T13:29:15;100301.16;;;26.80;43.25
30708;BME280;17458;48.958;8.284;2023-07-30T13:32:02;100298.75;;;26.61;40.29
30708;BME280;17458;48.958;8.284;2023-07-30T13:34:45;100304.59;;;26.93;42.37
30708;BME280;17458;48.958;8.284;2023-07-30T13:37:29;100310.03;;;26.93;39.92
30708;BME280;17458;48.958;8.284;2023-07-30T13:40:13;100303.16;;;27.23;40.32
30708;BME280;17458;48.958;8.284;2023-07-30T13:42:57;100303.69;;;26.91;39.95
30708;BME280;17458;48.958;8.284;2023-07-30T13:45:41;100299.00;;;27.01;40.66
30708;BME280;17458;48.958;8.284;2023-07-30T13:48:25;100309.56;;;27.19;40.11
30708;BME280;17458;48.958;8.284;2023-07-30T13:51:10;100303.44;;;27.52;39.75
30708;BME280;17458;48.958;8.284;2023-07-30T13:53:53;100304.13;;;27.19;40.88
30708;BME280;17458;48.958;8.284;2023-07-30T13:56:38;100319.34;;;26.78;40.15
30708;BME280;17458;48.958;8.284;2023-07-30T13:59:22;100323.34;;;26.55;38.80
30708;BME280;17458;48.958;8.284;2023-07-30T14:02:06;100317.16;;;26.43;39.83
30708;BME280;17458;48.958;8.284;2023-07-30T14:04:50;100322.63;;;26.43;39.63
30708;BME280;17458;48.958;8.284;2023-07-30T14:07:34;100324.22;;;27.13;39.34
30708;BME280;17458;48.958;8.284;2023-07-30T14:10:18;100334.41;;;27.02;38.42
30708;BME280;17458;48.958;8.284;2023-07-30T14:13:03;100330.81;;;26.99;38.89
30708;BME280;17458;48.958;8.284;2023-07-30T14:15:47;100350.47;;;26.64;39.23
30708;BME280;17458;48.958;8.284;2023-07-30T14:18:31;100340.66;;;26.52;39.53
30708;BME280;17458;48.958;8.284;2023-07-30T14:21:14;100341.38;;;26.65;37.85
30708;BME280;17458;48.958;8.284;2023-07-30T14:23:58;100338.25;;;26.26;38.69
30708;BME280;17458;48.958;8.284;2023-07-30T14:26:42;100338.69;;;26.60;38.34